Terminal Aerodrome Forecast
Issued by NWS Charleston, WV

Home | Current Version | Previous Version | Text Only | Print | Product List | Glossary On
Versions: 1 2 3 4 5 6 7 8 9 10 11 12 13 14 15 16 17 18 19 20 21 22 23 24 25 26 27 28 29
000
FTUS41 KRLX 280200 AAA
TAFCRW
TAF AMD
KCRW 280207Z 2802/2824 32009G18KT P6SM BKN045
     FM280600 33007KT P6SM OVC045
     FM281200 34007KT P6SM SKC
     FM282000 31008KT P6SM SKC=

USA.gov is the U.S. government's official web portal to all federal, state and local government web resources and services.